ADDS METAR Data INFO
IDs: Format: Raw Decoded Include TAF

Data at: 0749 UTC 17 Oct 2017

KAQR 170735Z AUTO 00000KT 10SM 06/05 A3030 RMK AO2
KAQR 170715Z AUTO 00000KT 10SM 06/06 A3030 RMK AO2
KAQR 170655Z AUTO 00000KT 10SM 06/06 A3029 RMK AO2
KAQR 170635Z AUTO 00000KT 10SM 06/06 A3029 RMK AO2
KAQR 170615Z AUTO 00000KT 10SM 06/06 A3029 RMK AO2
KAQR 170555Z AUTO 00000KT 10SM 07/06 A3029 RMK AO2
KAQR 170535Z AUTO 00000KT 06/06 A3029 RMK AO2 PWINO
KAQR 170515Z AUTO 00000KT 07/06 A3028 RMK AO2 PWINO
KAQR 170455Z AUTO 00000KT 10SM 07/07 A3028 RMK AO2
KAQR 170435Z AUTO 00000KT 10SM 07/07 A3028 RMK AO2
KAQR 170410Z AUTO 00000KT 10SM 08/07 A3029 RMK AO2
KAQR 170355Z AUTO 00000KT 10SM 08/05 A3029 RMK AO2
KAQR 170335Z AUTO 00000KT 10SM 08/06 A3029 RMK AO2
KAQR 170315Z AUTO 00000KT 10SM 09/06 A3029 RMK AO2
KAQR 170255Z AUTO 00000KT 10SM 10/06 A3029 RMK AO2
KAQR 170235Z AUTO 00000KT 10/06 A3029 RMK AO2 PWINO
KAQR 170215Z AUTO 00000KT 10/06 A3029 RMK AO2 PWINO
KAQR 170155Z AUTO 00000KT 11/06 A3029 RMK AO2 PWINO
KAQR 170135Z AUTO 00000KT 11/06 A3029 RMK AO2 PWINO
KAQR 170115Z AUTO 00000KT 11/06 A3029 RMK AO2 PWINO
KAQR 170055Z AUTO 00000KT 13/06 A3029 RMK AO2 PWINO
KAQR 170035Z AUTO 00000KT 10SM 13/07 A3029 RMK AO2
KAQR 170015Z AUTO 00000KT 10SM 14/06 A3028 RMK AO2
KAQR 162355Z AUTO 00000KT 10SM 16/05 A3028 RMK AO2
KAQR 162335Z AUTO 00000KT 10SM 18/03 A3028 RMK AO2
KAQR 162315Z AUTO 02003KT 10SM 20/02 A3028 RMK AO2
KAQR 162255Z AUTO 36003KT 10SM 20/02 A3028 RMK AO2
KAQR 162235Z AUTO 06004KT 10SM 21/02 A3028 RMK AO2
KAQR 162215Z AUTO 00000KT 10SM 21/02 A3028 RMK AO2
KAQR 162155Z AUTO 00000KT 10SM 21/02 A3028 RMK AO2
KAQR 162135Z AUTO 00000KT 10SM 21/01 A3029 RMK AO2
KAQR 162115Z AUTO 00000KT 10SM 21/01 A3029 RMK AO2
KAQR 162055Z AUTO 03004KT 10SM 21/01 A3030 RMK AO2
KAQR 162035Z AUTO 04003KT 10SM 21/01 A3030 RMK AO2
KAQR 162015Z AUTO 07004KT 10SM 21/00 A3031 RMK AO2
KAQR 161955Z AUTO 03003KT 10SM 21/01 A3032 RMK AO2
KAQR 161935Z AUTO 01006KT 10SM 21/01 A3033 RMK AO2
KAQR 161915Z AUTO 05003KT 10SM 21/01 A3034 RMK AO2
KAQR 161855Z AUTO 09007KT 7SM 20/01 A3035 RMK AO2
KAQR 161835Z AUTO 00000KT 10SM 20/01 A3036 RMK AO2
KAQR 161815Z AUTO 01003KT 10SM 20/01 A3038 RMK AO2
KAQR 161755Z AUTO 03005KT 10SM 20/01 A3039 RMK AO2
KAQR 161735Z AUTO 01005KT 10SM 19/01 A3040 RMK AO2
KAQR 161715Z AUTO 09007KT 050V140 10SM 19/01 A3041 RMK AO2
KAQR 161655Z AUTO 06003KT 10SM 18/02 A3042 RMK AO2
KAQR 161635Z AUTO 06005KT 10SM 18/01 A3043 RMK AO2
KAQR 161615Z AUTO 10004KT 10SM 17/03 A3043 RMK AO2
KAQR 161555Z AUTO 07007KT 10SM 16/05 A3043 RMK AO2
KAQR 161535Z AUTO 03004KT 10SM 15/06 A3043 RMK AO2
KAQR 161515Z AUTO 00000KT 10SM 13/07 A3043 RMK AO2 PWINO
KAQR 161455Z AUTO 34003KT 10SM 12/07 A3044 RMK AO2
KAQR 161435Z AUTO 00000KT 10SM 10/06 A3044 RMK AO2
KAQR 161415Z AUTO 34003KT 10SM 09/05 A3043 RMK AO2
KAQR 161355Z AUTO 00000KT 10SM 08/05 A3043 RMK AO2
KAQR 161335Z AUTO 00000KT 10SM 07/06 A3043 RMK AO2
KAQR 161315Z AUTO 00000KT 10SM 06/05 A3042 RMK AO2
KAQR 161255Z AUTO 00000KT 10SM 06/05 A3041 RMK AO2
KAQR 161235Z AUTO 00000KT 10SM 06/05 A3041 RMK AO2
KAQR 161215Z AUTO 33003KT 10SM 05/05 A3041 RMK AO2
KAQR 161155Z AUTO 33003KT 10SM 05/05 A3041 RMK AO2
KAQR 161135Z AUTO 00000KT 10SM 05/04 A3041 RMK AO2
KAQR 161115Z AUTO 00000KT 10SM 05/05 A3040 RMK AO2
KAQR 161055Z AUTO 00000KT 10SM 05/05 A3040 RMK AO2
KAQR 161035Z AUTO 00000KT 10SM 06/05 A3039 RMK AO2
KAQR 161015Z AUTO 00000KT 10SM 06/05 A3039 RMK AO2
KAQR 160955Z AUTO 00000KT 10SM 06/05 A3038 RMK AO2
KAQR 160935Z AUTO 00000KT 10SM 06/05 A3038 RMK AO2
KAQR 160915Z AUTO 00000KT 10SM 06/05 A3038 RMK AO2
KAQR 160855Z AUTO 00000KT 10SM 06/06 A3038 RMK AO2
KAQR 160835Z AUTO 00000KT 10SM 06/06 A3038 RMK AO2
KAQR 160815Z AUTO 00000KT 10SM 06/06 A3038 RMK AO2
KAQR 160755Z AUTO 00000KT 10SM 06/06 A3039 RMK AO2
KAQR 160735Z AUTO 00000KT 10SM 07/05 A3038 RMK AO2
KAQR 160715Z AUTO 00000KT 10SM 07/05 A3038 RMK AO2
KAQR 160655Z AUTO 00000KT 10SM 07/05 A3038 RMK AO2
KAQR 160635Z AUTO 36003KT 10SM 08/05 A3038 RMK AO2
KAQR 160615Z AUTO 35004KT 10SM 08/05 A3038 RMK AO2
KAQR 160555Z AUTO 34004KT 10SM 08/05 A3038 RMK AO2
KAQR 160535Z AUTO 00000KT 10SM 08/07 A3038 RMK AO2
KAQR 160515Z AUTO 00000KT 10SM 08/06 A3038 RMK AO2
KAQR 160455Z AUTO 00000KT 10SM 09/06 A3038 RMK AO2
KAQR 160435Z AUTO 00000KT 10SM 09/06 A3038 RMK AO2
KAQR 160415Z AUTO 00000KT 10SM 09/06 A3037 RMK AO2
KAQR 160355Z AUTO 00000KT 10SM 10/06 A3037 RMK AO2
KAQR 160335Z AUTO 00000KT 10SM 10/06 A3037 RMK AO2
KAQR 160315Z AUTO 00000KT 10SM 08/06 A3036 RMK AO2
KAQR 160250Z AUTO 00000KT 10SM 09/06 A3035 RMK AO2
KAQR 160235Z AUTO 00000KT 10SM 10/07 A3035 RMK AO2
KAQR 160215Z AUTO 00000KT 10SM 10/06 A3035 RMK AO2
KAQR 160155Z AUTO 00000KT 11/07 A3034 RMK AO2 PWINO
KAQR 160135Z AUTO 00000KT 12/06 A3033 RMK AO2 PWINO
KAQR 160115Z AUTO 00000KT 13/05 A3033 RMK AO2 PWINO
KAQR 160055Z AUTO 00000KT 14/05 A3032 RMK AO2 PWINO
KAQR 160035Z AUTO 00000KT 15/04 A3031 RMK AO2 PWINO
KAQR 160015Z AUTO 36003KT 16/03 A3031 RMK AO2 PWINO
KAQR 152355Z AUTO 01003KT 16/04 A3030 RMK AO2 PWINO
KAQR 152335Z AUTO 01003KT 17/03 A3030 RMK AO2 PWINO
KAQR 152315Z AUTO 01008KT 10SM 18/03 A3030 RMK AO2
KAQR 152255Z AUTO 01010G18KT 10SM 19/02 A3029 RMK AO2
KAQR 152235Z AUTO 36011G17KT 10SM 19/02 A3028 RMK AO2
KAQR 152215Z AUTO 36012G17KT 10SM 20/03 A3029 RMK AO2
KAQR 152155Z AUTO 02012G18KT 10SM 20/02 A3029 RMK AO2
KAQR 152135Z AUTO 36010G16KT 10SM 20/02 A3028 RMK AO2 LTG DSNT S
KAQR 152115Z AUTO 36011G18KT 10SM 21/03 A3029 RMK AO2
KAQR 152055Z AUTO 01011G17KT 10SM 21/03 A3028 RMK AO2
KAQR 152035Z AUTO 35013G20KT 10SM 21/03 A3028 RMK AO2
KAQR 152015Z AUTO 01014G20KT 10SM 21/03 A3028 RMK AO2
KAQR 151955Z AUTO 01013G23KT 10SM 20/03 A3029 RMK AO2